createdAt,value
2023-04-11T00:00:25.608Z,80.80
2023-04-11T00:05:31.466Z,80.80
2023-04-11T00:10:34.735Z,80.70
2023-04-11T00:15:39.396Z,81.40
2023-04-11T00:20:44.056Z,81.20
2023-04-11T00:25:48.347Z,81.20
2023-04-11T00:30:51.613Z,80.70
2023-04-11T00:35:56.992Z,81.40
2023-04-11T00:41:00.384Z,81.40
2023-04-11T00:46:04.141Z,81.50
2023-04-11T00:51:09.356Z,80.80
2023-04-11T00:56:13.174Z,81.20
2023-04-11T01:01:16.791Z,81.30
2023-04-11T01:06:23.463Z,81.80
2023-04-11T01:11:27.344Z,82.00
2023-04-11T01:16:30.743Z,81.90
2023-04-11T01:21:36.313Z,82.30
2023-04-11T01:26:41.051Z,82.60
2023-04-11T01:31:45.209Z,83.30
2023-04-11T01:36:48.722Z,83.80
2023-04-11T01:41:54.253Z,83.90
2023-04-11T01:46:57.883Z,83.70
2023-04-11T01:52:01.172Z,83.70
2023-04-11T01:57:06.206Z,84.10
2023-04-11T02:02:09.710Z,83.70
2023-04-11T02:07:13.181Z,84.10
2023-04-11T02:12:17.952Z,83.80
2023-04-11T02:17:25.927Z,83.40
2023-04-11T02:22:29.352Z,84.50
2023-04-11T02:27:34.536Z,83.30
2023-04-11T02:32:38.425Z,84.10
2023-04-11T02:37:41.684Z,84.50
2023-04-11T02:42:46.312Z,84.60
2023-04-11T02:47:50.055Z,84.50
2023-04-11T02:52:54.235Z,85.00
2023-04-11T02:58:03.023Z,85.10
2023-04-11T03:03:07.327Z,85.80
2023-04-11T03:08:17.979Z,86.20
2023-04-11T03:13:28.504Z,86.10
2023-04-11T03:18:31.991Z,86.00
2023-04-11T03:23:39.854Z,86.40
2023-04-11T03:28:44.619Z,85.90
2023-04-11T03:33:51.283Z,86.00
2023-04-11T03:38:54.996Z,86.80
2023-04-11T03:44:00.135Z,86.70
2023-04-11T03:49:03.578Z,87.40
2023-04-11T03:54:07.609Z,89.60
2023-04-11T03:59:16.735Z,91.60
2023-04-11T04:04:40.918Z,93.60
2023-04-11T04:09:56.914Z,94.60
2023-04-11T04:15:02.545Z,97.10
2023-04-11T04:20:10.781Z,97.40
2023-04-11T04:25:17.343Z,99.90
2023-04-11T04:30:24.056Z,99.90
2023-04-11T04:35:39.888Z,99.90
2023-04-11T04:40:44.251Z,99.90
2023-04-11T04:45:49.234Z,99.90
2023-04-11T04:50:57.620Z,99.90
2023-04-11T04:56:01.882Z,99.90
2023-04-11T05:01:11.396Z,99.90
2023-04-11T05:06:15.068Z,99.90
2023-04-11T05:11:22.112Z,99.90
2023-04-11T05:16:27.131Z,99.90
2023-04-11T05:21:31.388Z,99.90
2023-04-11T05:26:35.234Z,99.90
2023-04-11T05:31:40.503Z,99.90
2023-04-11T05:36:46.410Z,99.90
2023-04-11T05:41:50.208Z,99.90
2023-04-11T05:46:54.772Z,99.90
2023-04-11T05:51:58.071Z,99.90
2023-04-11T05:57:05.107Z,99.90
2023-04-11T06:02:10.029Z,99.90
2023-04-11T06:07:15.563Z,99.90
2023-04-11T06:12:23.778Z,99.90
2023-04-11T06:17:41.461Z,99.90
2023-04-11T06:22:47.282Z,99.90
2023-04-11T06:27:51.764Z,99.90
2023-04-11T06:32:58.028Z,99.90
2023-04-11T06:38:01.769Z,99.90
2023-04-11T06:43:06.308Z,99.90
2023-04-11T06:48:12.507Z,99.90
2023-04-11T06:53:16.614Z,99.90
2023-04-11T06:58:21.722Z,99.90
2023-04-11T07:03:27.457Z,99.90
2023-04-11T07:08:32.058Z,99.90
2023-04-11T07:13:36.210Z,99.90
2023-04-11T07:18:41.220Z,99.90
2023-04-11T07:23:45.586Z,99.90
2023-04-11T07:28:50.164Z,99.90
2023-04-11T07:33:59.206Z,99.90
2023-04-11T07:39:09.000Z,99.90
2023-04-11T07:44:13.302Z,99.90
2023-04-11T07:49:19.660Z,99.90
2023-04-11T07:54:25.426Z,99.90
2023-04-11T07:59:29.198Z,99.90
2023-04-11T08:04:35.414Z,99.90
2023-04-11T08:09:39.567Z,99.90
2023-04-11T08:14:43.047Z,99.90
2023-04-11T08:19:47.953Z,99.90
2023-04-11T08:24:51.978Z,99.90
2023-04-11T08:29:57.105Z,99.90
2023-04-11T08:35:01.912Z,99.90
2023-04-11T08:40:07.409Z,99.90
2023-04-11T08:45:12.700Z,99.90
2023-04-11T08:50:19.510Z,99.90
2023-04-11T08:55:23.570Z,99.90
2023-04-11T09:00:29.190Z,99.90
2023-04-11T09:05:35.859Z,99.90
2023-04-11T09:10:42.889Z,99.90
2023-04-11T09:15:46.960Z,99.90
2023-04-11T09:20:59.978Z,99.90
2023-04-11T09:26:06.732Z,99.90
2023-04-11T09:31:13.255Z,99.90
2023-04-11T09:36:21.382Z,99.90
2023-04-11T09:41:32.666Z,99.90
2023-04-11T09:46:37.392Z,99.90
2023-04-11T09:51:42.979Z,99.90
2023-04-11T09:56:46.667Z,99.90
2023-04-11T10:01:51.614Z,99.90
2023-04-11T10:07:09.057Z,99.90
2023-04-11T10:12:12.949Z,99.90
2023-04-11T10:17:21.837Z,99.90
2023-04-11T10:23:01.585Z,96.80
2023-04-11T10:28:05.619Z,93.70
2023-04-11T10:33:10.223Z,85.90
2023-04-11T10:38:49.635Z,90.20
2023-04-11T10:44:18.505Z,91.10
2023-04-11T10:49:34.719Z,88.40
2023-04-11T10:54:39.894Z,94.20
2023-04-11T10:59:59.672Z,99.90
2023-04-11T11:05:18.555Z,99.30
2023-04-11T11:10:41.137Z,97.40
2023-04-11T11:15:50.982Z,91.10
2023-04-11T11:20:56.231Z,93.30
2023-04-11T11:26:02.172Z,96.80
2023-04-11T11:31:06.322Z,94.20
2023-04-11T11:36:12.155Z,88.50
2023-04-11T11:41:17.822Z,80.90
2023-04-11T11:46:21.667Z,69.30
2023-04-11T11:51:26.623Z,82.00
2023-04-11T11:56:32.210Z,94.70
2023-04-11T12:01:37.550Z,99.90
2023-04-11T12:06:45.899Z,99.90
2023-04-11T12:11:55.270Z,99.90
2023-04-11T12:16:59.226Z,99.90
2023-04-11T12:22:03.234Z,99.90
2023-04-11T12:27:09.039Z,99.90
2023-04-11T12:32:15.342Z,99.90
2023-04-11T12:37:19.192Z,99.90
2023-04-11T12:42:27.161Z,99.90
2023-04-11T12:47:31.358Z,99.90
2023-04-11T12:52:35.914Z,99.90
2023-04-11T12:57:42.393Z,99.90
2023-04-11T13:02:46.848Z,99.90
2023-04-11T13:07:51.013Z,99.90
2023-04-11T13:12:58.644Z,99.90
2023-04-11T13:18:04.952Z,99.90
2023-04-11T13:23:10.491Z,99.90
2023-04-11T13:28:17.097Z,99.90
2023-04-11T13:33:21.053Z,99.90
2023-04-11T13:38:25.698Z,99.90
2023-04-11T13:43:31.376Z,99.90
2023-04-11T13:48:36.580Z,99.90
2023-04-11T13:53:41.215Z,99.90
2023-04-11T13:58:46.694Z,99.90
2023-04-11T14:03:51.593Z,99.90
2023-04-11T14:08:55.907Z,99.90
2023-04-11T14:14:03.939Z,99.90
2023-04-11T14:19:08.861Z,99.90
2023-04-11T14:24:12.827Z,99.90
2023-04-11T14:29:19.404Z,99.90
2023-04-11T14:34:24.734Z,99.90
2023-04-11T14:39:29.145Z,99.90
2023-04-11T14:44:35.627Z,99.90
2023-04-11T14:49:39.354Z,99.90
2023-04-11T14:54:43.182Z,99.90
2023-04-11T14:59:48.585Z,99.90
2023-04-11T15:04:53.689Z,99.90
2023-04-11T15:09:58.161Z,99.90
2023-04-11T15:15:04.703Z,99.90
2023-04-11T15:20:11.777Z,99.90
2023-04-11T15:25:16.928Z,99.90
2023-04-11T15:30:22.513Z,99.90
2023-04-11T15:35:26.914Z,99.90
2023-04-11T15:40:30.504Z,99.90
2023-04-11T15:45:37.391Z,99.90
2023-04-11T15:50:42.720Z,99.90
2023-04-11T15:55:47.925Z,99.90
2023-04-11T16:00:54.854Z,99.90
2023-04-11T16:05:58.733Z,99.90
2023-04-11T16:11:02.183Z,99.90
2023-04-11T16:16:09.570Z,99.90
2023-04-11T16:21:15.190Z,99.90
2023-04-11T16:26:18.687Z,99.90
2023-04-11T16:31:24.994Z,99.90
2023-04-11T16:36:29.853Z,99.90
2023-04-11T16:41:36.473Z,99.90
2023-04-11T16:46:41.958Z,99.90
2023-04-11T16:51:45.716Z,99.90
2023-04-11T16:56:49.638Z,99.90
2023-04-11T17:01:54.711Z,99.90
2023-04-11T17:06:58.304Z,99.90
2023-04-11T17:12:03.330Z,99.90
2023-04-11T17:17:08.579Z,99.90
2023-04-11T17:22:13.309Z,99.90
2023-04-11T17:27:17.650Z,99.90
2023-04-11T17:32:22.757Z,99.90
2023-04-11T17:37:26.997Z,99.90
2023-04-11T17:42:30.587Z,99.90
2023-04-11T17:47:35.947Z,99.90
2023-04-11T17:52:42.648Z,99.90
2023-04-11T17:57:50.070Z,99.90
2023-04-11T18:03:00.966Z,99.90
2023-04-11T18:08:05.340Z,99.90
2023-04-11T18:13:09.299Z,99.90
2023-04-11T18:18:14.276Z,99.90
2023-04-11T18:23:18.062Z,99.90
2023-04-11T18:28:23.176Z,99.90
2023-04-11T18:33:28.157Z,99.90
2023-04-11T18:38:31.781Z,99.90
2023-04-11T18:43:35.454Z,99.90
2023-04-11T18:48:40.856Z,99.90
2023-04-11T18:53:45.019Z,99.90
2023-04-11T18:58:51.514Z,99.90
2023-04-11T19:04:00.044Z,99.90
2023-04-11T19:09:06.585Z,99.90
2023-04-11T19:14:10.677Z,99.90
2023-04-11T19:19:16.463Z,99.90
2023-04-11T19:24:20.577Z,99.90
2023-04-11T19:29:24.619Z,99.90
2023-04-11T19:34:30.436Z,99.90
2023-04-11T19:39:38.371Z,99.90
2023-04-11T19:44:42.369Z,99.90
2023-04-11T19:49:47.401Z,99.90
2023-04-11T19:54:51.363Z,99.90
2023-04-11T19:59:55.477Z,99.90
2023-04-11T20:05:01.748Z,99.90
2023-04-11T20:10:08.064Z,99.90
2023-04-11T20:15:13.710Z,99.90
2023-04-11T20:20:20.563Z,99.90
2023-04-11T20:25:24.791Z,99.90
2023-04-11T20:30:29.845Z,99.90
2023-04-11T20:35:35.118Z,99.90
2023-04-11T20:40:38.744Z,99.90
2023-04-11T20:45:43.017Z,99.90
2023-04-11T20:50:48.471Z,99.90
2023-04-11T20:55:52.338Z,99.90
2023-04-11T21:00:57.201Z,99.90
2023-04-11T21:06:04.447Z,99.90
2023-04-11T21:11:09.403Z,99.90
2023-04-11T21:16:13.421Z,99.90
2023-04-11T21:21:19.123Z,99.90
2023-04-11T21:26:23.568Z,99.90
2023-04-11T21:31:27.846Z,99.90
2023-04-11T21:36:33.332Z,99.90
2023-04-11T21:41:37.143Z,99.90
2023-04-11T21:46:41.357Z,99.90
2023-04-11T21:51:46.376Z,99.90
2023-04-11T21:56:50.687Z,99.90
2023-04-11T22:01:54.458Z,99.90
2023-04-11T22:07:00.739Z,99.90
2023-04-11T22:12:04.845Z,99.90
2023-04-11T22:17:08.964Z,99.90
2023-04-11T22:22:14.202Z,99.90
2023-04-11T22:27:19.298Z,99.90
2023-04-11T22:32:23.835Z,99.90
2023-04-11T22:37:29.078Z,99.90
2023-04-11T22:42:32.754Z,99.90
2023-04-11T22:47:38.064Z,99.90
2023-04-11T22:52:43.723Z,99.90
2023-04-11T22:57:49.347Z,99.90
2023-04-11T23:02:54.541Z,99.90
2023-04-11T23:08:01.332Z,99.90
2023-04-11T23:13:05.455Z,99.90
2023-04-11T23:18:09.681Z,99.90
2023-04-11T23:23:15.795Z,99.90
2023-04-11T23:28:21.072Z,99.90
2023-04-11T23:33:27.048Z,99.90
2023-04-11T23:38:32.782Z,99.90
2023-04-11T23:43:36.797Z,99.90
2023-04-11T23:48:40.813Z,99.90
2023-04-11T23:53:46.105Z,99.90
2023-04-11T23:58:49.926Z,99.90
